sensor_id;sensor_type;location;lat;lon;timestamp;pressure;altitude;pressure_sealevel;temperature;humidity
10006;BME280;5042;42.626;23.382;2024-01-11T00:00:10;147886.09;;;-4.82;100.00
10006;BME280;5042;42.626;23.382;2024-01-11T00:02:38;147870.78;;;-4.88;100.00
10006;BME280;5042;42.626;23.382;2024-01-11T00:05:06;147896.34;;;-4.78;100.00
10006;BME280;5042;42.626;23.382;2024-01-11T00:07:33;147924.53;;;-4.66;100.00
10006;BME280;5042;42.626;23.382;2024-01-11T00:10:01;147988.59;;;-4.41;100.00
10006;BME280;5042;42.626;23.382;2024-01-11T00:12:28;147932.22;;;-4.63;100.00
10006;BME280;5042;42.626;23.382;2024-01-11T00:14:55;147992.41;;;-4.39;100.00
10006;BME280;5042;42.626;23.382;2024-01-11T00:17:22;148041.13;;;-4.20;100.00
10006;BME280;5042;42.626;23.382;2024-01-11T00:19:50;148019.31;;;-4.29;100.00
10006;BME280;5042;42.626;23.382;2024-01-11T00:22:17;147937.34;;;-4.61;100.00
10006;BME280;5042;42.626;23.382;2024-01-11T00:24:44;147897.63;;;-4.77;100.00
10006;BME280;5042;42.626;23.382;2024-01-11T00:27:11;147833.66;;;-5.03;100.00
10006;BME280;5042;42.626;23.382;2024-01-11T00:29:38;147860.50;;;-4.92;100.00
10006;BME280;5042;42.626;23.382;2024-01-11T00:32:05;147864.38;;;-4.91;100.00
10006;BME280;5042;42.626;23.382;2024-01-11T00:34:32;147834.91;;;-5.02;100.00
10006;BME280;5042;42.626;23.382;2024-01-11T00:37:00;147831.06;;;-5.04;100.00
10006;BME280;5042;42.626;23.382;2024-01-11T00:39:27;147824.66;;;-5.06;100.00
10006;BME280;5042;42.626;23.382;2024-01-11T00:41:54;147832.34;;;-5.03;100.00
10006;BME280;5042;42.626;23.382;2024-01-11T00:44:21;147823.41;;;-5.07;100.00
10006;BME280;5042;42.626;23.382;2024-01-11T00:46:48;147815.72;;;-5.10;100.00
10006;BME280;5042;42.626;23.382;2024-01-11T00:49:15;147834.91;;;-5.02;100.00
10006;BME280;5042;42.626;23.382;2024-01-11T00:51:42;147832.34;;;-5.03;100.00
10006;BME280;5042;42.626;23.382;2024-01-11T00:54:10;147827.19;;;-5.05;100.00
10006;BME280;5042;42.626;23.382;2024-01-11T00:56:37;147819.53;;;-5.08;100.00
10006;BME280;5042;42.626;23.382;2024-01-11T00:59:04;147831.06;;;-5.04;100.00
10006;BME280;5042;42.626;23.382;2024-01-11T01:01:31;147864.38;;;-4.91;100.00
10006;BME280;5042;42.626;23.382;2024-01-11T01:03:58;147854.13;;;-4.95;100.00
10006;BME280;5042;42.626;23.382;2024-01-11T01:06:25;147806.75;;;-5.14;100.00
10006;BME280;5042;42.626;23.382;2024-01-11T01:08:53;147732.53;;;-5.43;100.00
10006;BME280;5042;42.626;23.382;2024-01-11T01:11:22;147682.59;;;-5.63;100.00
10006;BME280;5042;42.626;23.382;2024-01-11T01:13:49;147645.50;;;-5.78;100.00
10006;BME280;5042;42.626;23.382;2024-01-11T01:16:16;147607.09;;;-5.93;100.00
10006;BME280;5042;42.626;23.382;2024-01-11T01:18:43;147609.69;;;-5.92;100.00
10006;BME280;5042;42.626;23.382;2024-01-11T01:21:10;147627.59;;;-5.85;100.00
10006;BME280;5042;42.626;23.382;2024-01-11T01:23:37;147640.38;;;-5.80;100.00
10006;BME280;5042;42.626;23.382;2024-01-11T01:26:04;147645.50;;;-5.78;100.00
10006;BME280;5042;42.626;23.382;2024-01-11T01:28:32;147660.84;;;-5.72;100.00
10006;BME280;5042;42.626;23.382;2024-01-11T01:30:59;147645.50;;;-5.78;100.00
10006;BME280;5042;42.626;23.382;2024-01-11T01:33:26;147676.22;;;-5.66;100.00
10006;BME280;5042;42.626;23.382;2024-01-11T01:35:53;147672.34;;;-5.67;100.00
10006;BME280;5042;42.626;23.382;2024-01-11T01:38:20;147664.69;;;-5.70;100.00
10006;BME280;5042;42.626;23.382;2024-01-11T01:40:47;147672.34;;;-5.67;100.00
10006;BME280;5042;42.626;23.382;2024-01-11T01:43:14;147678.75;;;-5.65;100.00
10006;BME280;5042;42.626;23.382;2024-01-11T01:45:42;147689.00;;;-5.61;100.00
10006;BME280;5042;42.626;23.382;2024-01-11T01:48:09;147686.47;;;-5.62;100.00
10006;BME280;5042;42.626;23.382;2024-01-11T01:50:36;147721.00;;;-5.48;100.00
10006;BME280;5042;42.626;23.382;2024-01-11T01:53:03;147674.94;;;-5.66;100.00
10006;BME280;5042;42.626;23.382;2024-01-11T01:55:31;147610.97;;;-5.92;100.00
10006;BME280;5042;42.626;23.382;2024-01-11T01:57:58;147650.63;;;-5.76;100.00
10006;BME280;5042;42.626;23.382;2024-01-11T02:00:26;147590.56;;;-6.00;100.00
10006;BME280;5042;42.626;23.382;2024-01-11T02:02:55;147573.94;;;-6.07;100.00
10006;BME280;5042;42.626;23.382;2024-01-11T02:05:23;147573.94;;;-6.07;100.00
10006;BME280;5042;42.626;23.382;2024-01-11T02:07:50;147586.72;;;-6.02;100.00
10006;BME280;5042;42.626;23.382;2024-01-11T02:10:17;147550.91;;;-6.16;100.00
10006;BME280;5042;42.626;23.382;2024-01-11T02:12:45;147589.25;;;-6.01;100.00
10006;BME280;5042;42.626;23.382;2024-01-11T02:15:12;147632.72;;;-5.83;100.00
10006;BME280;5042;42.626;23.382;2024-01-11T02:17:40;147634.00;;;-5.83;100.00
10006;BME280;5042;42.626;23.382;2024-01-11T02:20:10;147622.47;;;-5.87;100.00
10006;BME280;5042;42.626;23.382;2024-01-11T02:22:38;147680.06;;;-5.64;100.00
10006;BME280;5042;42.626;23.382;2024-01-11T02:25:08;147728.69;;;-5.45;100.00
10006;BME280;5042;42.626;23.382;2024-01-11T02:27:45;147719.69;;;-5.48;100.00
10006;BME280;5042;42.626;23.382;2024-01-11T02:30:13;147758.13;;;-5.33;100.00
10006;BME280;5042;42.626;23.382;2024-01-11T02:32:40;147729.94;;;-5.44;100.00
10006;BME280;5042;42.626;23.382;2024-01-11T02:35:08;147713.31;;;-5.51;100.00
10006;BME280;5042;42.626;23.382;2024-01-11T02:37:36;147649.31;;;-5.77;100.00
10006;BME280;5042;42.626;23.382;2024-01-11T02:40:05;147594.38;;;-5.99;100.00
10006;BME280;5042;42.626;23.382;2024-01-11T02:42:34;147579.06;;;-6.05;100.00
10006;BME280;5042;42.626;23.382;2024-01-11T02:45:02;147564.94;;;-6.10;100.00
10006;BME280;5042;42.626;23.382;2024-01-11T02:47:30;147575.19;;;-6.06;100.00
10006;BME280;5042;42.626;23.382;2024-01-11T02:49:56;147587.97;;;-6.01;100.00
10006;BME280;5042;42.626;23.382;2024-01-11T02:52:23;147576.47;;;-6.06;100.00
10006;BME280;5042;42.626;23.382;2024-01-11T02:54:50;147607.09;;;-5.93;100.00
10006;BME280;5042;42.626;23.382;2024-01-11T02:57:17;147642.94;;;-5.79;100.00
10006;BME280;5042;42.626;23.382;2024-01-11T02:59:45;147639.13;;;-5.81;100.00
10006;BME280;5042;42.626;23.382;2024-01-11T03:02:12;147635.25;;;-5.82;100.00
10006;BME280;5042;42.626;23.382;2024-01-11T03:04:39;147621.22;;;-5.88;100.00
10006;BME280;5042;42.626;23.382;2024-01-11T03:07:06;147603.34;;;-5.95;100.00
10006;BME280;5042;42.626;23.382;2024-01-11T03:09:33;147617.34;;;-5.89;100.00
10006;BME280;5042;42.626;23.382;2024-01-11T03:12:00;147644.25;;;-5.79;100.00
10006;BME280;5042;42.626;23.382;2024-01-11T03:14:27;147665.97;;;-5.70;100.00
10006;BME280;5042;42.626;23.382;2024-01-11T03:16:55;147686.47;;;-5.62;100.00
10006;BME280;5042;42.626;23.382;2024-01-11T03:19:22;147645.50;;;-5.78;100.00
10006;BME280;5042;42.626;23.382;2024-01-11T03:21:50;147621.22;;;-5.88;100.00
10006;BME280;5042;42.626;23.382;2024-01-11T03:24:16;147651.91;;;-5.76;100.00
10006;BME280;5042;42.626;23.382;2024-01-11T03:26:43;147655.75;;;-5.74;100.00
10006;BME280;5042;42.626;23.382;2024-01-11T03:29:10;147631.41;;;-5.84;100.00
10006;BME280;5042;42.626;23.382;2024-01-11T03:31:37;147587.97;;;-6.01;100.00
10006;BME280;5042;42.626;23.382;2024-01-11T03:34:08;147598.22;;;-5.97;100.00
10006;BME280;5042;42.626;23.382;2024-01-11T03:36:35;147547.06;;;-6.18;100.00
10006;BME280;5042;42.626;23.382;2024-01-11T03:39:02;147360.44;;;-6.92;100.00
10006;BME280;5042;42.626;23.382;2024-01-11T03:41:29;147517.63;;;-6.29;100.00
10006;BME280;5042;42.626;23.382;2024-01-11T03:43:56;147480.56;;;-6.44;100.00
10006;BME280;5042;42.626;23.382;2024-01-11T03:46:23;147575.19;;;-6.06;100.00
10006;BME280;5042;42.626;23.382;2024-01-11T03:48:49;147581.59;;;-6.04;100.00
10006;BME280;5042;42.626;23.382;2024-01-11T03:51:18;147582.84;;;-6.03;100.00
10006;BME280;5042;42.626;23.382;2024-01-11T03:53:45;147596.97;;;-5.98;100.00
10006;BME280;5042;42.626;23.382;2024-01-11T03:56:11;147580.31;;;-6.04;100.00
10006;BME280;5042;42.626;23.382;2024-01-11T03:58:38;147599.50;;;-5.97;100.00
10006;BME280;5042;42.626;23.382;2024-01-11T04:01:07;147623.75;;;-5.87;100.00
10006;BME280;5042;42.626;23.382;2024-01-11T04:03:35;147609.69;;;-5.92;100.00
10006;BME280;5042;42.626;23.382;2024-01-11T04:06:03;147682.59;;;-5.63;100.00
10006;BME280;5042;42.626;23.382;2024-01-11T04:08:31;147657.03;;;-5.73;100.00
10006;BME280;5042;42.626;23.382;2024-01-11T04:10:58;147641.66;;;-5.80;100.00
10006;BME280;5042;42.626;23.382;2024-01-11T04:13:28;147600.75;;;-5.96;100.00
10006;BME280;5042;42.626;23.382;2024-01-11T04:15:55;147619.94;;;-5.88;100.00
10006;BME280;5042;42.626;23.382;2024-01-11T04:18:22;147548.31;;;-6.17;100.00
10006;BME280;5042;42.626;23.382;2024-01-11T04:20:49;147547.06;;;-6.18;100.00
10006;BME280;5042;42.626;23.382;2024-01-11T04:23:15;147563.69;;;-6.11;100.00
10006;BME280;5042;42.626;23.382;2024-01-11T04:25:44;147609.69;;;-5.92;100.00
10006;BME280;5042;42.626;23.382;2024-01-11T04:28:11;147610.97;;;-5.92;100.00
10006;BME280;5042;42.626;23.382;2024-01-11T04:30:38;147614.81;;;-5.90;100.00
10006;BME280;5042;42.626;23.382;2024-01-11T04:33:04;147587.97;;;-6.01;100.00
10006;BME280;5042;42.626;23.382;2024-01-11T04:35:31;147568.81;;;-6.09;100.00
10006;BME280;5042;42.626;23.382;2024-01-11T04:37:58;147580.31;;;-6.04;100.00
10006;BME280;5042;42.626;23.382;2024-01-11T04:40:26;147609.69;;;-5.92;100.00
10006;BME280;5042;42.626;23.382;2024-01-11T04:42:54;147690.25;;;-5.60;100.00
10006;BME280;5042;42.626;23.382;2024-01-11T04:45:21;147681.34;;;-5.64;100.00
10006;BME280;5042;42.626;23.382;2024-01-11T04:47:50;147659.56;;;-5.72;100.00
10006;BME280;5042;42.626;23.382;2024-01-11T04:50:17;147691.59;;;-5.60;100.00
10006;BME280;5042;42.626;23.382;2024-01-11T04:52:44;147682.59;;;-5.63;100.00
10006;BME280;5042;42.626;23.382;2024-01-11T04:55:11;147645.50;;;-5.78;100.00
10006;BME280;5042;42.626;23.382;2024-01-11T04:57:38;147622.47;;;-5.87;100.00
10006;BME280;5042;42.626;23.382;2024-01-11T05:00:07;147627.59;;;-5.85;100.00
10006;BME280;5042;42.626;23.382;2024-01-11T05:02:34;147585.44;;;-6.02;100.00
10006;BME280;5042;42.626;23.382;2024-01-11T05:05:01;147584.13;;;-6.03;100.00
10006;BME280;5042;42.626;23.382;2024-01-11T05:07:28;147566.22;;;-6.10;100.00
10006;BME280;5042;42.626;23.382;2024-01-11T05:09:55;147550.91;;;-6.16;100.00
10006;BME280;5042;42.626;23.382;2024-01-11T05:12:22;147561.16;;;-6.12;100.00
10006;BME280;5042;42.626;23.382;2024-01-11T05:14:49;147541.94;;;-6.20;100.00
10006;BME280;5042;42.626;23.382;2024-01-11T05:17:17;147576.47;;;-6.06;100.00
10006;BME280;5042;42.626;23.382;2024-01-11T05:19:44;147581.59;;;-6.04;100.00
10006;BME280;5042;42.626;23.382;2024-01-11T05:22:11;147563.69;;;-6.11;100.00
10006;BME280;5042;42.626;23.382;2024-01-11T05:24:38;147576.47;;;-6.06;100.00
10006;BME280;5042;42.626;23.382;2024-01-11T05:27:05;147599.50;;;-5.97;100.00
10006;BME280;5042;42.626;23.382;2024-01-11T05:29:32;147622.47;;;-5.87;100.00
10006;BME280;5042;42.626;23.382;2024-01-11T05:31:59;147625.00;;;-5.86;100.00
10006;BME280;5042;42.626;23.382;2024-01-11T05:34:27;147595.66;;;-5.98;100.00
10006;BME280;5042;42.626;23.382;2024-01-11T05:36:54;147607.09;;;-5.93;100.00
10006;BME280;5042;42.626;23.382;2024-01-11T05:39:21;147598.22;;;-5.97;100.00
10006;BME280;5042;42.626;23.382;2024-01-11T05:41:48;147586.72;;;-6.02;100.00
10006;BME280;5042;42.626;23.382;2024-01-11T05:44:15;147598.22;;;-5.97;100.00
10006;BME280;5042;42.626;23.382;2024-01-11T05:46:42;147630.13;;;-5.84;100.00
10006;BME280;5042;42.626;23.382;2024-01-11T05:49:09;147648.06;;;-5.77;100.00
10006;BME280;5042;42.626;23.382;2024-01-11T05:51:37;147637.84;;;-5.81;100.00
10006;BME280;5042;42.626;23.382;2024-01-11T05:54:04;147664.69;;;-5.70;100.00
10006;BME280;5042;42.626;23.382;2024-01-11T05:56:31;147681.34;;;-5.64;100.00
10006;BME280;5042;42.626;23.382;2024-01-11T05:58:58;147665.97;;;-5.70;100.00
10006;BME280;5042;42.626;23.382;2024-01-11T06:01:25;147676.22;;;-5.66;100.00
10006;BME280;5042;42.626;23.382;2024-01-11T06:03:52;147632.72;;;-5.83;100.00
10006;BME280;5042;42.626;23.382;2024-01-11T06:06:19;147602.09;;;-5.95;100.00
10006;BME280;5042;42.626;23.382;2024-01-11T06:08:47;147567.53;;;-6.09;100.00
10006;BME280;5042;42.626;23.382;2024-01-11T06:11:14;147493.34;;;-6.39;100.00
10006;BME280;5042;42.626;23.382;2024-01-11T06:13:43;147451.16;;;-6.56;100.00
10006;BME280;5042;42.626;23.382;2024-01-11T06:16:10;147480.56;;;-6.44;100.00
10006;BME280;5042;42.626;23.382;2024-01-11T06:18:37;147455.00;;;-6.54;100.00
10006;BME280;5042;42.626;23.382;2024-01-11T06:21:04;147440.91;;;-6.60;100.00
10006;BME280;5042;42.626;23.382;2024-01-11T06:23:31;147458.81;;;-6.53;100.00
10006;BME280;5042;42.626;23.382;2024-01-11T06:25:59;147469.06;;;-6.49;100.00
10006;BME280;5042;42.626;23.382;2024-01-11T06:28:26;147522.75;;;-6.27;100.00
10006;BME280;5042;42.626;23.382;2024-01-11T06:30:53;147538.13;;;-6.21;100.00
10006;BME280;5042;42.626;23.382;2024-01-11T06:33:20;147536.81;;;-6.22;100.00
10006;BME280;5042;42.626;23.382;2024-01-11T06:35:47;147563.69;;;-6.11;100.00
10006;BME280;5042;42.626;23.382;2024-01-11T06:38:13;147541.94;;;-6.20;100.00
10006;BME280;5042;42.626;23.382;2024-01-11T06:40:41;147554.75;;;-6.14;100.00
10006;BME280;5042;42.626;23.382;2024-01-11T06:43:10;147550.91;;;-6.16;100.00
10006;BME280;5042;42.626;23.382;2024-01-11T06:45:37;147552.19;;;-6.15;100.00
10006;BME280;5042;42.626;23.382;2024-01-11T06:48:05;147575.19;;;-6.06;100.00
10006;BME280;5042;42.626;23.382;2024-01-11T06:50:32;147590.56;;;-6.00;100.00
10006;BME280;5042;42.626;23.382;2024-01-11T06:52:59;147561.16;;;-6.12;100.00
10006;BME280;5042;42.626;23.382;2024-01-11T06:55:26;147610.97;;;-5.92;100.00
10006;BME280;5042;42.626;23.382;2024-01-11T06:57:53;147651.91;;;-5.76;100.00
10006;BME280;5042;42.626;23.382;2024-01-11T07:00:22;147607.09;;;-5.93;100.00
10006;BME280;5042;42.626;23.382;2024-01-11T07:02:48;147599.50;;;-5.97;100.00
10006;BME280;5042;42.626;23.382;2024-01-11T07:05:15;147589.25;;;-6.01;100.00
10006;BME280;5042;42.626;23.382;2024-01-11T07:07:42;147610.97;;;-5.92;100.00
10006;BME280;5042;42.626;23.382;2024-01-11T07:10:09;147632.72;;;-5.83;100.00
10006;BME280;5042;42.626;23.382;2024-01-11T07:12:37;147703.09;;;-5.55;100.00
10006;BME280;5042;42.626;23.382;2024-01-11T07:15:08;147680.06;;;-5.64;100.00
10006;BME280;5042;42.626;23.382;2024-01-11T07:17:36;147678.75;;;-5.65;100.00
10006;BME280;5042;42.626;23.382;2024-01-11T07:20:04;147689.00;;;-5.61;100.00
10006;BME280;5042;42.626;23.382;2024-01-11T07:22:31;147696.66;;;-5.58;100.00
10006;BME280;5042;42.626;23.382;2024-01-11T07:24:58;147715.88;;;-5.50;100.00
10006;BME280;5042;42.626;23.382;2024-01-11T07:27:25;147678.75;;;-5.65;100.00
10006;BME280;5042;42.626;23.382;2024-01-11T07:29:52;147724.81;;;-5.46;100.00
10006;BME280;5042;42.626;23.382;2024-01-11T07:32:19;147737.59;;;-5.41;100.00
10006;BME280;5042;42.626;23.382;2024-01-11T07:34:47;147758.13;;;-5.33;100.00
10006;BME280;5042;42.626;23.382;2024-01-11T07:37:14;147747.88;;;-5.37;100.00
10006;BME280;5042;42.626;23.382;2024-01-11T07:39:41;147776.03;;;-5.26;100.00
10006;BME280;5042;42.626;23.382;2024-01-11T07:42:08;147791.38;;;-5.20;100.00
10006;BME280;5042;42.626;23.382;2024-01-11T07:44:35;147776.03;;;-5.26;100.00
10006;BME280;5042;42.626;23.382;2024-01-11T07:47:02;147781.16;;;-5.24;100.00
10006;BME280;5042;42.626;23.382;2024-01-11T07:49:29;147765.78;;;-5.30;100.00
10006;BME280;5042;42.626;23.382;2024-01-11T07:51:57;147747.88;;;-5.37;100.00
10006;BME280;5042;42.626;23.382;2024-01-11T07:54:25;147747.88;;;-5.37;100.00
10006;BME280;5042;42.626;23.382;2024-01-11T07:56:51;147777.31;;;-5.25;100.00
10006;BME280;5042;42.626;23.382;2024-01-11T07:59:18;147792.69;;;-5.19;100.00
10006;BME280;5042;42.626;23.382;2024-01-11T08:01:45;147815.72;;;-5.10;100.00
10006;BME280;5042;42.626;23.382;2024-01-11T08:04:13;147850.25;;;-4.96;100.00
10006;BME280;5042;42.626;23.382;2024-01-11T08:06:40;147886.09;;;-4.82;100.00
10006;BME280;5042;42.626;23.382;2024-01-11T08:09:09;147907.88;;;-4.73;100.00
10006;BME280;5042;42.626;23.382;2024-01-11T08:11:36;147891.22;;;-4.80;100.00
10006;BME280;5042;42.626;23.382;2024-01-11T08:14:03;147891.22;;;-4.80;100.00
10006;BME280;5042;42.626;23.382;2024-01-11T08:16:30;147856.66;;;-4.94;100.00
10006;BME280;5042;42.626;23.382;2024-01-11T08:18:57;147924.53;;;-4.66;100.00
10006;BME280;5042;42.626;23.382;2024-01-11T08:21:26;147965.53;;;-4.50;100.00
10006;BME280;5042;42.626;23.382;2024-01-11T08:23:53;147956.53;;;-4.54;100.00
10006;BME280;5042;42.626;23.382;2024-01-11T08:26:22;147975.78;;;-4.46;100.00
10006;BME280;5042;42.626;23.382;2024-01-11T08:28:49;147964.25;;;-4.51;100.00
10006;BME280;5042;42.626;23.382;2024-01-11T08:31:16;147993.72;;;-4.39;100.00
10006;BME280;5042;42.626;23.382;2024-01-11T08:33:42;148042.41;;;-4.19;100.00
10006;BME280;5042;42.626;23.382;2024-01-11T08:36:09;148137.22;;;-3.81;100.00
10006;BME280;5042;42.626;23.382;2024-01-11T08:38:37;148350.06;;;-2.96;100.00
10006;BME280;5042;42.626;23.382;2024-01-11T08:41:04;148516.84;;;-2.30;100.00
10006;BME280;5042;42.626;23.382;2024-01-11T08:43:33;148592.53;;;-2.00;100.00
10006;BME280;5042;42.626;23.382;2024-01-11T08:46:00;148650.31;;;-1.77;100.00
10006;BME280;5042;42.626;23.382;2024-01-11T08:48:27;148717.06;;;-1.50;100.00
10006;BME280;5042;42.626;23.382;2024-01-11T08:50:54;148781.28;;;-1.24;100.00
10006;BME280;5042;42.626;23.382;2024-01-11T08:53:21;148782.56;;;-1.24;100.00
10006;BME280;5042;42.626;23.382;2024-01-11T08:55:48;148806.97;;;-1.14;100.00
10006;BME280;5042;42.626;23.382;2024-01-11T08:58:15;148783.84;;;-1.23;100.00
10006;BME280;5042;42.626;23.382;2024-01-11T09:00:43;148745.34;;;-1.39;100.00
10006;BME280;5042;42.626;23.382;2024-01-11T09:03:10;148697.81;;;-1.58;100.00
10006;BME280;5042;42.626;23.382;2024-01-11T09:05:39;148756.91;;;-1.34;100.00
10006;BME280;5042;42.626;23.382;2024-01-11T09:08:06;148736.38;;;-1.42;100.00
10006;BME280;5042;42.626;23.382;2024-01-11T09:10:33;148832.69;;;-1.04;100.00
10006;BME280;5042;42.626;23.382;2024-01-11T09:13:00;148895.63;;;-0.79;100.00
10006;BME280;5042;42.626;23.382;2024-01-11T09:15:27;148904.66;;;-0.75;100.00
10006;BME280;5042;42.626;23.382;2024-01-11T09:17:55;148925.19;;;-0.67;100.00
10006;BME280;5042;42.626;23.382;2024-01-11T09:20:22;148914.94;;;-0.71;100.00
10006;BME280;5042;42.626;23.382;2024-01-11T09:22:49;148920.03;;;-0.69;100.00
10006;BME280;5042;42.626;23.382;2024-01-11T09:25:16;148880.25;;;-0.85;100.00
10006;BME280;5042;42.626;23.382;2024-01-11T09:27:43;148893.09;;;-0.80;100.00
10006;BME280;5042;42.626;23.382;2024-01-11T09:30:11;148767.19;;;-1.30;100.00
10006;BME280;5042;42.626;23.382;2024-01-11T09:32:38;148723.50;;;-1.47;100.00
10006;BME280;5042;42.626;23.382;2024-01-11T09:35:06;148737.66;;;-1.42;100.00
10006;BME280;5042;42.626;23.382;2024-01-11T09:37:34;148683.72;;;-1.63;100.00
10006;BME280;5042;42.626;23.382;2024-01-11T09:40:01;148664.41;;;-1.71;100.00
10006;BME280;5042;42.626;23.382;2024-01-11T09:42:32;148609.22;;;-1.93;100.00
10006;BME280;5042;42.626;23.382;2024-01-11T09:45:00;148606.69;;;-1.94;100.00
10006;BME280;5042;42.626;23.382;2024-01-11T09:47:28;148583.56;;;-2.03;100.00
10006;BME280;5042;42.626;23.382;2024-01-11T09:49:58;148591.25;;;-2.00;100.00
10006;BME280;5042;42.626;23.382;2024-01-11T09:52:28;148602.81;;;-1.96;100.00
10006;BME280;5042;42.626;23.382;2024-01-11T09:54:57;148605.34;;;-1.95;100.00
10006;BME280;5042;42.626;23.382;2024-01-11T09:57:28;148601.53;;;-1.96;100.00
10006;BME280;5042;42.626;23.382;2024-01-11T09:59:56;148579.69;;;-2.05;100.00
10006;BME280;5042;42.626;23.382;2024-01-11T10:02:24;148611.81;;;-1.92;100.00
10006;BME280;5042;42.626;23.382;2024-01-11T10:04:52;148631.06;;;-1.84;100.00
10006;BME280;5042;42.626;23.382;2024-01-11T10:07:22;148625.91;;;-1.86;100.00
10006;BME280;5042;42.626;23.382;2024-01-11T10:09:51;148498.88;;;-2.37;100.00
10006;BME280;5042;42.626;23.382;2024-01-11T10:12:18;148668.28;;;-1.69;100.00
10006;BME280;5042;42.626;23.382;2024-01-11T10:14:48;148606.69;;;-1.94;100.00
10006;BME280;5042;42.626;23.382;2024-01-11T10:17:15;148663.16;;;-1.72;100.00
10006;BME280;5042;42.626;23.382;2024-01-11T10:19:42;148649.03;;;-1.77;100.00
10006;BME280;5042;42.626;23.382;2024-01-11T10:22:09;148670.84;;;-1.68;100.00
10006;BME280;5042;42.626;23.382;2024-01-11T10:24:38;148719.66;;;-1.49;100.00
10006;BME280;5042;42.626;23.382;2024-01-11T10:27:08;148747.88;;;-1.38;100.00
10006;BME280;5042;42.626;23.382;2024-01-11T10:29:37;148749.22;;;-1.37;100.00
10006;BME280;5042;42.626;23.382;2024-01-11T10:32:04;148772.34;;;-1.28;100.00
10006;BME280;5042;42.626;23.382;2024-01-11T10:34:31;148822.41;;;-1.08;100.00
10006;BME280;5042;42.626;23.382;2024-01-11T10:36:59;148871.22;;;-0.89;100.00
10006;BME280;5042;42.626;23.382;2024-01-11T10:39:26;148876.38;;;-0.87;100.00
10006;BME280;5042;42.626;23.382;2024-01-11T10:42:00;148830.09;;;-1.05;100.00
10006;BME280;5042;42.626;23.382;2024-01-11T10:44:33;148835.25;;;-1.03;100.00
10006;BME280;5042;42.626;23.382;2024-01-11T10:47:02;148863.53;;;-0.92;100.00
10006;BME280;5042;42.626;23.382;2024-01-11T10:49:30;148851.97;;;-0.96;100.00
10006;BME280;5042;42.626;23.382;2024-01-11T10:52:00;148812.13;;;-1.12;100.00
10006;BME280;5042;42.626;23.382;2024-01-11T10:54:28;148828.84;;;-1.05;100.00
10006;BME280;5042;42.626;23.382;2024-01-11T10:56:58;148850.69;;;-0.97;100.00
10006;BME280;5042;42.626;23.382;2024-01-11T10:59:26;148851.97;;;-0.96;100.00
10006;BME280;5042;42.626;23.382;2024-01-11T11:01:57;148890.47;;;-0.81;100.00
10006;BME280;5042;42.626;23.382;2024-01-11T11:04:25;148914.94;;;-0.71;100.00
10006;BME280;5042;42.626;23.382;2024-01-11T11:06:55;148729.91;;;-1.45;100.00
10006;BME280;5042;42.626;23.382;2024-01-11T11:09:23;148884.06;;;-0.83;100.00
10006;BME280;5042;42.626;23.382;2024-01-11T11:11:53;148929.06;;;-0.66;100.00
10006;BME280;5042;42.626;23.382;2024-01-11T11:14:22;148871.22;;;-0.89;100.00
10006;BME280;5042;42.626;23.382;2024-01-11T11:16:51;148845.53;;;-0.99;100.00
10006;BME280;5042;42.626;23.382;2024-01-11T11:19:21;148835.25;;;-1.03;100.00
10006;BME280;5042;42.626;23.382;2024-01-11T11:21:49;148826.28;;;-1.07;100.00
10006;BME280;5042;42.626;23.382;2024-01-11T11:24:16;148801.88;;;-1.16;100.00
10006;BME280;5042;42.626;23.382;2024-01-11T11:26:44;148776.16;;;-1.26;100.00
10006;BME280;5042;42.626;23.382;2024-01-11T11:29:11;148763.31;;;-1.32;100.00
10006;BME280;5042;42.626;23.382;2024-01-11T11:31:42;148669.56;;;-1.69;100.00
10006;BME280;5042;42.626;23.382;2024-01-11T11:34:11;148786.44;;;-1.22;100.00
10006;BME280;5042;42.626;23.382;2024-01-11T11:36:39;148809.56;;;-1.13;100.00
10006;BME280;5042;42.626;23.382;2024-01-11T11:39:10;148806.97;;;-1.14;100.00
10006;BME280;5042;42.626;23.382;2024-01-11T11:41:38;148831.38;;;-1.04;100.00
10006;BME280;5042;42.626;23.382;2024-01-11T11:44:06;148814.72;;;-1.11;100.00
10006;BME280;5042;42.626;23.382;2024-01-11T11:46:33;148840.41;;;-1.01;100.00
10006;BME280;5042;42.626;23.382;2024-01-11T11:49:00;148828.84;;;-1.05;100.00
10006;BME280;5042;42.626;23.382;2024-01-11T11:51:28;148821.13;;;-1.09;100.00
10006;BME280;5042;42.626;23.382;2024-01-11T11:53:57;148877.66;;;-0.86;100.00
10006;BME280;5042;42.626;23.382;2024-01-11T11:56:24;148868.66;;;-0.90;100.00
10006;BME280;5042;42.626;23.382;2024-01-11T11:58:51;148868.66;;;-0.90;100.00
10006;BME280;5042;42.626;23.382;2024-01-11T12:01:20;148868.66;;;-0.90;100.00
10006;BME280;5042;42.626;23.382;2024-01-11T12:03:47;148904.66;;;-0.75;100.00
10006;BME280;5042;42.626;23.382;2024-01-11T12:06:16;148913.63;;;-0.72;100.00
10006;BME280;5042;42.626;23.382;2024-01-11T12:08:44;148860.94;;;-0.93;100.00
10006;BME280;5042;42.626;23.382;2024-01-11T12:11:18;148889.22;;;-0.81;100.00
10006;BME280;5042;42.626;23.382;2024-01-11T12:13:46;148857.09;;;-0.94;100.00
10006;BME280;5042;42.626;23.382;2024-01-11T12:16:13;148963.78;;;-0.52;100.00
10006;BME280;5042;42.626;23.382;2024-01-11T12:18:40;148932.94;;;-0.64;100.00
10006;BME280;5042;42.626;23.382;2024-01-11T12:21:07;149055.03;;;-0.15;100.00
10006;BME280;5042;42.626;23.382;2024-01-11T12:23:36;149071.75;;;-0.09;100.00
10006;BME280;5042;42.626;23.382;2024-01-11T12:26:06;149069.16;;;-0.10;100.00
10006;BME280;5042;42.626;23.382;2024-01-11T12:28:39;149039.59;;;-0.22;100.00
10006;BME280;5042;42.626;23.382;2024-01-11T12:31:07;149146.31;;;0.21;100.00
10006;BME280;5042;42.626;23.382;2024-01-11T12:33:34;149186.19;;;0.37;100.00
10006;BME280;5042;42.626;23.382;2024-01-11T12:36:05;149223.50;;;0.52;100.00
10006;BME280;5042;42.626;23.382;2024-01-11T12:38:33;149262.13;;;0.67;100.00
10006;BME280;5042;42.626;23.382;2024-01-11T12:41:01;149254.38;;;0.64;100.00